Time;durP1;ratioP1;P1;durP2;ratioP2;P2;SDS_P1;SDS_P2;PMS_P1;PMS_P2;Temp;Humidity;BMP_temperature;BMP_pressure;BME280_temperature;BME280_humidity;BME280_pressure;Samples;Min_cycle;Max_cycle;Signal;HPM_P1;HPM_P2
2021/12/17 00:01:05;;;;;;;3.75;3.38;;;18.60;53.80;;;;;;5054793;28;20391;-74
2021/12/17 00:03:44;;;;;;;4.30;3.60;;;18.70;53.90;;;;;;5055082;28;20009;-76
2021/12/17 00:06:16;;;;;;;7.95;3.67;;;18.70;53.80;;;;;;5070395;28;20024;-74
2021/12/17 00:08:44;;;;;;;3.90;3.50;;;18.70;54.40;;;;;;5071051;28;20013;-74
2021/12/17 00:11:10;;;;;;;3.67;3.22;;;18.70;53.90;;;;;;5072020;28;20048;-75
2021/12/17 00:13:36;;;;;;;4.57;3.88;;;18.60;53.90;;;;;;5056433;28;20538;-75
2021/12/17 00:16:11;;;;;;;3.70;3.40;;;18.60;53.80;;;;;;5056874;28;20044;-75
2021/12/17 00:18:50;;;;;;;3.95;3.45;;;18.60;53.90;;;;;;5057036;28;20043;-75
2021/12/17 00:43:54;;;;;;;3.90;3.50;;;18.60;54.00;;;;;;5072845;28;20048;-74
2021/12/17 00:48:41;;;;;;;4.28;3.75;;;18.60;53.90;;;;;;5074461;28;20103;-73
2021/12/17 00:54:02;;;;;;;3.60;3.30;;;18.50;53.90;;;;;;5074352;28;20029;-73
2021/12/17 00:56:28;;;;;;;4.05;3.28;;;18.60;54.00;;;;;;5057682;28;20013;-74
2021/12/17 00:58:54;;;;;;;4.10;3.60;;;18.50;54.00;;;;;;5091435;28;20018;-74
2021/12/17 01:01:20;;;;;;;5.25;3.40;;;18.50;53.90;;;;;;5058810;28;20032;-75
2021/12/17 01:03:46;;;;;;;5.57;3.80;;;18.50;54.00;;;;;;5076876;28;20607;-75
2021/12/17 01:06:11;;;;;;;6.38;3.45;;;18.50;54.00;;;;;;5076597;28;20032;-72
2021/12/17 01:08:37;;;;;;;4.20;3.58;;;18.50;53.90;;;;;;5093289;28;20025;-75
2021/12/17 01:11:03;;;;;;;4.72;3.47;;;18.50;53.90;;;;;;5093813;28;20072;-75
2021/12/17 01:13:29;;;;;;;3.78;3.45;;;18.50;53.90;;;;;;5093492;28;20021;-75
2021/12/17 01:15:55;;;;;;;3.92;3.53;;;18.50;53.90;;;;;;5077183;28;20018;-76
2021/12/17 01:18:24;;;;;;;4.15;3.63;;;18.50;53.90;;;;;;5093854;28;20071;-75
2021/12/17 01:23:46;;;;;;;3.95;3.53;;;18.50;53.90;;;;;;5093630;28;20024;-74
2021/12/17 01:36:52;;;;;;;4.30;3.60;;;18.40;53.90;;;;;;5087211;28;20039;-74
2021/12/17 01:42:13;;;;;;;4.28;3.65;;;18.40;53.90;;;;;;5020145;28;20022;-73
2021/12/17 01:44:39;;;;;;;3.65;3.35;;;18.40;53.90;;;;;;5073777;28;20025;-74
2021/12/17 01:47:06;;;;;;;4.20;3.80;;;18.40;54.50;;;;;;5072809;28;20017;-73
2021/12/17 02:00:19;;;;;;;4.10;3.70;;;18.40;54.00;;;;;;5088901;28;20029;-74
2021/12/17 02:02:54;;;;;;;3.75;3.45;;;18.30;54.00;;;;;;5072976;28;20044;-75
2021/12/17 02:05:20;;;;;;;5.10;3.75;;;18.40;54.00;;;;;;5071564;28;20039;-74
2021/12/17 02:07:49;;;;;;;4.35;3.95;;;18.40;54.00;;;;;;5070237;28;20021;-74
2021/12/17 02:29:52;;;;;;;3.95;3.55;;;18.30;53.90;;;;;;5038113;28;20068;-76
2021/12/17 02:32:19;;;;;;;4.93;3.65;;;18.30;54.50;;;;;;5037360;28;20033;-75
2021/12/17 02:35:32;;;;;;;8.32;4.20;;;18.30;54.00;;;;;;5037181;28;20033;-74
2021/12/17 02:37:34;;;;;;;4.35;3.95;;;18.30;54.00;;;;;;5024589;28;20399;-75
2021/12/17 02:45:31;;;;;;;4.05;3.63;;;18.30;54.00;;;;;;5036480;28;20029;-76
2021/12/17 02:45:32;;;;;;;3.80;3.42;;;18.30;54.00;;;;;;5035936;28;20028;-76
2021/12/17 02:48:09;;;;;;;4.18;3.78;;;18.30;54.50;;;;;;5057934;28;20029;-76
2021/12/17 02:50:38;;;;;;;6.38;4.00;;;18.30;54.00;;;;;;5057811;28;20039;-75
2021/12/17 02:53:07;;;;;;;5.90;4.30;;;18.30;54.00;;;;;;5074686;28;20092;-76
2021/12/17 02:55:34;;;;;;;5.28;4.00;;;18.20;53.90;;;;;;5058464;28;20028;-75
2021/12/17 02:58:00;;;;;;;4.78;4.38;;;18.20;53.90;;;;;;5040762;28;20025;-75
2021/12/17 03:00:25;;;;;;;4.70;4.10;;;18.20;53.90;;;;;;5056700;28;20417;-75
2021/12/17 03:02:51;;;;;;;5.40;3.90;;;18.20;53.90;;;;;;5056205;28;20028;-76
2021/12/17 03:05:17;;;;;;;4.25;3.85;;;18.20;53.90;;;;;;5057507;28;20529;-76
2021/12/17 03:07:46;;;;;;;4.60;4.00;;;18.20;54.00;;;;;;5056797;28;20485;-75
2021/12/17 03:10:14;;;;;;;4.70;4.20;;;18.20;54.00;;;;;;5056976;28;20374;-76
2021/12/17 03:26:16;;;;;;;6.18;4.03;;;18.20;54.00;;;;;;5055533;28;20035;-75
2021/12/17 03:28:45;;;;;;;4.18;3.78;;;18.20;54.00;;;;;;5059617;28;20032;-75
2021/12/17 03:31:11;;;;;;;4.40;3.97;;;18.20;54.00;;;;;;5059073;28;20036;-75
2021/12/17 03:33:41;;;;;;;5.07;4.35;;;18.10;54.00;;;;;;5058756;28;20032;-75
2021/12/17 03:36:07;;;;;;;4.95;4.40;;;18.10;54.00;;;;;;5060040;28;20013;-75
2021/12/17 03:38:53;;;;;;;4.18;3.78;;;18.10;54.00;;;;;;5062838;28;20429;-75
2021/12/17 03:41:34;;;;;;;4.78;3.88;;;18.10;54.00;;;;;;5043286;28;20016;-75
2021/12/17 03:43:59;;;;;;;4.38;3.90;;;18.10;54.00;;;;;;5044745;28;20036;-76
2021/12/17 03:46:25;;;;;;;5.55;4.07;;;18.10;54.00;;;;;;5041788;28;20013;-74
2021/12/17 03:48:51;;;;;;;5.00;3.95;;;18.10;54.00;;;;;;5058140;28;20475;-74
2021/12/17 03:51:18;;;;;;;4.22;3.80;;;18.10;54.00;;;;;;5058602;28;20467;-75
2021/12/17 03:53:52;;;;;;;4.30;3.90;;;18.10;54.00;;;;;;5058687;28;20030;-75
2021/12/17 03:56:20;;;;;;;6.47;4.60;;;18.10;54.00;;;;;;5041708;28;20017;-75
2021/12/17 03:58:48;;;;;;;5.22;4.18;;;18.10;54.00;;;;;;5075027;28;20008;-75
2021/12/17 04:01:13;;;;;;;4.35;3.92;;;18.10;54.00;;;;;;5074252;28;20459;-75
2021/12/17 04:03:40;;;;;;;4.22;3.83;;;18.10;54.00;;;;;;5074062;28;20460;-75
2021/12/17 04:06:05;;;;;;;4.22;3.83;;;18.10;54.00;;;;;;5074095;28;20024;-75
2021/12/17 04:08:31;;;;;;;4.80;4.30;;;18.10;54.00;;;;;;5040451;28;20048;-75
2021/12/17 04:11:06;;;;;;;4.70;4.00;;;18.10;54.00;;;;;;5073854;28;20013;-75
2021/12/17 04:13:36;;;;;;;4.85;3.90;;;18.10;53.90;;;;;;5056713;28;20016;-75
2021/12/17 04:16:06;;;;;;;5.57;4.10;;;18.00;53.90;;;;;;5040495;28;20020;-74
2021/12/17 04:18:33;;;;;;;4.90;4.22;;;18.10;53.90;;;;;;5040700;28;20009;-75
2021/12/17 04:21:03;;;;;;;4.72;4.32;;;18.10;53.70;;;;;;5056742;28;20025;-74
2021/12/17 04:23:31;;;;;;;4.50;4.10;;;18.20;53.60;;;;;;5040586;28;20033;-75
2021/12/17 04:25:57;;;;;;;5.00;4.20;;;18.30;53.30;;;;;;5040547;28;20047;-74
2021/12/17 04:28:23;;;;;;;4.43;4.03;;;18.40;53.10;;;;;;5056769;28;20028;-74
2021/12/17 04:30:50;;;;;;;5.85;4.25;;;18.50;52.90;;;;;;5056901;28;20079;-74
2021/12/17 04:33:16;;;;;;;4.60;4.20;;;18.60;52.60;;;;;;5074063;28;20048;-75
2021/12/17 04:35:41;;;;;;;4.13;3.55;;;18.70;52.40;;;;;;5040555;28;20025;-74
2021/12/17 04:38:08;;;;;;;4.40;3.72;;;18.80;52.30;;;;;;5040718;28;20017;-75
2021/12/17 04:40:36;;;;;;;4.43;3.90;;;18.80;52.10;;;;;;5056754;28;20478;-74
2021/12/17 04:45:28;;;;;;;4.82;3.47;;;19.00;52.00;;;;;;5056909;28;20023;-74
2021/12/17 04:58:51;;;;;;;4.00;3.60;;;19.50;50.40;;;;;;5059205;28;20449;-75
2021/12/17 05:01:16;;;;;;;4.30;3.90;;;19.60;50.20;;;;;;5073249;28;20038;-75
2021/12/17 05:03:42;;;;;;;4.18;3.67;;;19.70;49.90;;;;;;5056376;28;20044;-75
2021/12/17 05:06:08;;;;;;;4.72;4.18;;;19.80;49.70;;;;;;5073642;28;20015;-75
2021/12/17 05:08:35;;;;;;;3.70;3.40;;;19.90;49.60;;;;;;5074143;28;20017;-75
2021/12/17 05:11:21;;;;;;;4.45;3.83;;;20.00;49.30;;;;;;5072782;28;20009;-75
2021/12/17 05:19:33;;;;;;;4.28;3.83;;;20.10;49.00;;;;;;5073030;28;20051;-75
2021/12/17 05:22:04;;;;;;;4.07;3.67;;;20.20;49.00;;;;;;5058836;28;20033;-75
2021/12/17 05:24:30;;;;;;;5.43;3.47;;;20.20;48.80;;;;;;5055921;28;20078;-75
2021/12/17 05:26:56;;;;;;;4.07;3.67;;;20.30;48.70;;;;;;5056595;28;20100;-75
2021/12/17 05:29:23;;;;;;;4.32;3.67;;;20.30;48.50;;;;;;5072839;28;20379;-75
2021/12/17 05:31:48;;;;;;;3.97;3.60;;;20.50;48.30;;;;;;5076626;28;20030;-76
2021/12/17 05:34:17;;;;;;;4.13;3.72;;;20.60;48.20;;;;;;5076608;28;20056;-75
2021/12/17 05:36:43;;;;;;;4.40;4.00;;;20.60;47.90;;;;;;5060427;28;20067;-75
2021/12/17 05:39:09;;;;;;;4.00;3.58;;;20.70;47.80;;;;;;5059374;28;20021;-75
2021/12/17 05:41:34;;;;;;;3.63;3.33;;;20.80;47.80;;;;;;5059167;28;20478;-73
2021/12/17 05:44:00;;;;;;;3.90;3.47;;;20.90;47.60;;;;;;5042993;28;20519;-73
2021/12/17 05:46:48;;;;;;;3.45;3.05;;;20.90;47.40;;;;;;5059372;28;20490;-74
2021/12/17 05:49:14;;;;;;;4.15;3.70;;;21.00;47.20;;;;;;5076219;28;20032;-73
2021/12/17 05:51:40;;;;;;;5.70;3.50;;;21.10;47.10;;;;;;5042924;28;20028;-74
2021/12/17 05:54:06;;;;;;;4.20;3.50;;;21.10;47.10;;;;;;5076738;28;20043;-74
2021/12/17 05:56:32;;;;;;;4.72;3.70;;;21.20;46.90;;;;;;5077713;28;20099;-74
2021/12/17 05:58:58;;;;;;;3.92;3.53;;;21.30;46.70;;;;;;5076041;28;20032;-73
2021/12/17 06:01:24;;;;;;;3.70;3.30;;;21.30;46.60;;;;;;5042530;28;20013;-74
2021/12/17 06:03:50;;;;;;;3.80;3.50;;;21.40;46.50;;;;;;5075758;28;20482;-74
2021/12/17 06:06:49;;;;;;;3.63;3.30;;;21.40;46.40;;;;;;5059613;28;20111;-74
2021/12/17 06:09:15;;;;;;;3.88;3.58;;;21.50;46.20;;;;;;5015209;28;20030;-74
2021/12/17 06:11:41;;;;;;;4.18;3.78;;;21.60;46.10;;;;;;4999192;28;20037;-73
2021/12/17 06:14:07;;;;;;;4.15;3.75;;;21.60;46.00;;;;;;4999151;28;20033;-74
2021/12/17 06:16:33;;;;;;;4.07;3.67;;;21.70;46.00;;;;;;4999003;28;20516;-73
2021/12/17 06:19:00;;;;;;;4.32;3.47;;;21.70;45.90;;;;;;4999347;28;20117;-73
2021/12/17 06:21:26;;;;;;;4.53;3.88;;;21.80;45.90;;;;;;4982356;28;20136;-74
2021/12/17 06:23:52;;;;;;;3.45;3.15;;;21.80;45.80;;;;;;4998956;28;20034;-72
2021/12/17 06:26:18;;;;;;;3.78;3.47;;;21.90;45.70;;;;;;4999115;28;20120;-73
2021/12/17 06:28:46;;;;;;;3.88;3.47;;;21.90;45.60;;;;;;4999959;28;20053;-73
2021/12/17 06:31:14;;;;;;;3.88;3.40;;;21.90;45.50;;;;;;4999446;28;20052;-72
2021/12/17 06:33:40;;;;;;;3.65;3.35;;;22.00;45.50;;;;;;4999956;28;20118;-73
2021/12/17 06:36:06;;;;;;;4.25;3.75;;;22.00;45.40;;;;;;4998984;28;20105;-73
2021/12/17 06:38:32;;;;;;;4.00;3.63;;;22.00;45.30;;;;;;5015198;28;20065;-73
2021/12/17 06:40:58;;;;;;;4.35;3.95;;;22.10;45.20;;;;;;4983538;28;20057;-73
2021/12/17 06:43:31;;;;;;;4.32;3.65;;;22.20;45.20;;;;;;4999258;28;20060;-74
2021/12/17 06:46:12;;;;;;;4.10;3.50;;;22.20;45.20;;;;;;5036289;28;20041;-74
2021/12/17 06:48:38;;;;;;;;;;;22.20;45.10;;;;;;5025270;28;20022;-74
2021/12/17 06:57:44;;;;;;;3.83;3.42;;;22.30;45.00;;;;;;5024435;28;20079;-73
2021/12/17 07:18:51;;;;;;;4.18;3.78;;;22.60;44.80;;;;;;5043635;28;20041;-75
2021/12/17 07:34:05;;;;;;;4.07;3.58;;;22.70;44.60;;;;;;5074731;28;20020;-73
2021/12/17 07:36:43;;;;;;;3.92;3.50;;;22.70;44.50;;;;;;5077755;28;20047;-73
2021/12/17 07:39:10;;;;;;;4.22;3.80;;;22.80;44.50;;;;;;5043833;28;20060;-74
2021/12/17 07:41:37;;;;;;;3.83;3.40;;;22.80;44.40;;;;;;5043190;28;20082;-74
2021/12/17 07:44:09;;;;;;;3.97;3.58;;;22.80;44.40;;;;;;5043579;28;20023;-75
2021/12/17 07:46:38;;;;;;;4.70;3.95;;;22.80;44.40;;;;;;5078120;28;20400;-75
2021/12/17 07:49:08;;;;;;;3.92;3.47;;;22.80;44.40;;;;;;5044543;28;20107;-75
2021/12/17 07:51:39;;;;;;;4.75;3.47;;;22.90;44.30;;;;;;5043542;28;20028;-75
2021/12/17 07:54:05;;;;;;;;;;;22.90;44.30;;;;;;5077695;28;20025;-75
2021/12/17 07:56:37;;;;;;;4.43;3.47;;;22.90;44.30;;;;;;5078230;28;19904;-74
2021/12/17 07:59:04;;;;;;;3.92;3.35;;;22.90;44.30;;;;;;5076529;28;20020;-75
2021/12/17 08:01:30;;;;;;;3.58;3.22;;;22.90;44.20;;;;;;5061947;28;20029;-74
2021/12/17 08:03:56;;;;;;;4.93;3.58;;;22.90;44.20;;;;;;5059594;28;20046;-75
2021/12/17 08:06:23;;;;;;;4.30;3.80;;;23.00;44.20;;;;;;5042833;28;20031;-75
2021/12/17 08:08:49;;;;;;;3.65;3.30;;;23.00;44.20;;;;;;5059575;28;20036;-75
2021/12/17 08:11:14;;;;;;;5.22;3.53;;;23.00;44.10;;;;;;5059555;28;20016;-73
2021/12/17 08:13:43;;;;;;;4.85;3.65;;;23.00;44.10;;;;;;5059319;28;20016;-75
2021/12/17 08:23:08;;;;;;;4.55;3.88;;;23.10;44.10;;;;;;5076511;28;20041;-74
2021/12/17 08:29:51;;;;;;;3.75;3.33;;;23.20;44.00;;;;;;5061701;28;20050;-75
2021/12/17 08:32:20;;;;;;;4.60;3.65;;;23.20;44.00;;;;;;5075794;28;20099;-74
2021/12/17 08:34:46;;;;;;;5.07;4.07;;;23.20;44.00;;;;;;5059961;28;20009;-77
2021/12/17 08:37:12;;;;;;;3.72;3.33;;;23.20;44.20;;;;;;5059823;28;20031;-74
2021/12/17 08:39:37;;;;;;;3.97;3.58;;;23.20;43.90;;;;;;5075658;28;20078;-75
2021/12/17 08:42:05;;;;;;;4.53;3.72;;;23.20;44.00;;;;;;5059120;28;20012;-72
2021/12/17 08:44:32;;;;;;;3.95;3.55;;;23.20;44.00;;;;;;5059590;28;20185;-74
2021/12/17 08:46:58;;;;;;;5.22;3.85;;;23.20;43.90;;;;;;5060007;28;20043;-74
2021/12/17 08:49:24;;;;;;;5.68;3.78;;;23.30;44.00;;;;;;5078148;28;20013;-73
2021/12/17 08:51:50;;;;;;;4.72;3.95;;;23.20;43.90;;;;;;5059247;28;20025;-73
2021/12/17 08:54:16;;;;;;;4.18;3.63;;;23.30;44.00;;;;;;5059308;28;20112;-74
2021/12/17 08:56:47;;;;;;;4.32;3.60;;;23.20;44.00;;;;;;5059336;28;20093;-74
2021/12/17 08:59:16;;;;;;;4.22;3.65;;;23.30;44.00;;;;;;5043253;28;20032;-74
2021/12/17 09:01:44;;;;;;;6.05;3.63;;;23.30;43.90;;;;;;5076231;28;20024;-72
2021/12/17 09:04:10;;;;;;;7.85;3.45;;;23.30;43.90;;;;;;5042220;28;20482;-73
2021/12/17 09:06:36;;;;;;;4.75;3.88;;;23.40;43.90;;;;;;5078755;28;20023;-73
2021/12/17 09:09:03;;;;;;;4.78;3.42;;;23.40;43.90;;;;;;5080465;28;20024;-73
2021/12/17 09:11:30;;;;;;;6.70;4.18;;;23.40;43.90;;;;;;5065028;28;20044;-73
2021/12/17 09:13:57;;;;;;;5.20;3.88;;;23.40;43.90;;;;;;5081366;28;20064;-75
2021/12/17 09:16:23;;;;;;;4.25;3.40;;;23.40;43.90;;;;;;5064952;28;20044;-73
2021/12/17 09:18:51;;;;;;;4.40;3.60;;;23.40;43.90;;;;;;5081793;28;20549;-73
2021/12/17 09:21:20;;;;;;;5.07;3.95;;;23.50;44.00;;;;;;5082145;28;20094;-73
2021/12/17 09:23:51;;;;;;;6.03;3.75;;;23.40;43.90;;;;;;5065273;28;20017;-72
2021/12/17 09:26:22;;;;;;;4.60;4.10;;;23.50;43.90;;;;;;5064559;28;20016;-73
2021/12/17 09:28:49;;;;;;;5.47;3.72;;;23.50;43.90;;;;;;5063820;28;20116;-73
2021/12/17 09:31:15;;;;;;;5.97;3.40;;;23.50;43.90;;;;;;5047949;28;20016;-73
2021/12/17 09:33:42;;;;;;;4.97;4.20;;;23.50;43.90;;;;;;5047073;28;20017;-73
2021/12/17 09:36:08;;;;;;;4.07;3.58;;;23.50;43.80;;;;;;5082107;28;20097;-73
2021/12/17 09:38:34;;;;;;;4.70;4.05;;;23.50;43.80;;;;;;5064520;28;20040;-74
2021/12/17 09:41:02;;;;;;;4.85;3.83;;;23.50;43.80;;;;;;5064238;28;20019;-73
2021/12/17 09:43:29;;;;;;;6.65;4.50;;;23.60;43.80;;;;;;5080365;28;20024;-74
2021/12/17 09:45:56;;;;;;;5.05;3.67;;;23.60;43.90;;;;;;5046962;28;20108;-73
2021/12/17 09:48:22;;;;;;;4.97;4.18;;;23.60;43.80;;;;;;5063087;28;20146;-73
2021/12/17 09:50:48;;;;;;;4.40;3.75;;;23.60;43.80;;;;;;5063460;28;20020;-74
2021/12/17 09:53:14;;;;;;;4.82;3.95;;;23.60;43.80;;;;;;5079805;28;20028;-73
2021/12/17 09:55:40;;;;;;;4.60;3.90;;;23.60;43.70;;;;;;5045283;28;20013;-73
2021/12/17 09:58:07;;;;;;;5.10;4.20;;;23.60;43.70;;;;;;5063894;28;20024;-73
2021/12/17 10:00:33;;;;;;;6.53;3.90;;;23.70;43.80;;;;;;5080030;28;20032;-72
2021/12/17 10:02:59;;;;;;;3.92;3.45;;;23.70;43.70;;;;;;5063285;28;20029;-73
2021/12/17 10:05:27;;;;;;;5.05;3.95;;;23.70;43.70;;;;;;5079956;28;20031;-74
2021/12/17 10:07:54;;;;;;;4.18;3.75;;;23.70;43.70;;;;;;5063542;28;20027;-73
2021/12/17 10:10:20;;;;;;;5.55;3.92;;;23.70;43.60;;;;;;5048241;28;20019;-74
2021/12/17 10:12:53;;;;;;;4.65;4.10;;;23.70;43.60;;;;;;5082297;28;20027;-74
2021/12/17 10:15:19;;;;;;;4.22;3.47;;;23.70;43.60;;;;;;5065322;28;20059;-74
2021/12/17 10:18:00;;;;;;;5.00;3.90;;;23.70;43.60;;;;;;5064185;28;20016;-74
2021/12/17 10:20:26;;;;;;;5.60;4.43;;;23.70;43.60;;;;;;5064501;28;20089;-74
2021/12/17 10:23:05;;;;;;;4.50;3.90;;;23.80;43.70;;;;;;5047467;28;20032;-74
2021/12/17 10:25:35;;;;;;;6.13;3.90;;;23.80;43.70;;;;;;5080908;28;20013;-73
2021/12/17 10:28:03;;;;;;;4.85;4.15;;;23.80;43.70;;;;;;5062903;28;20074;-73
2021/12/17 10:30:30;;;;;;;4.18;3.72;;;23.80;43.70;;;;;;5063424;28;20019;-74
2021/12/17 10:32:59;;;;;;;6.50;4.03;;;23.80;43.70;;;;;;5047070;28;20020;-73
2021/12/17 10:35:27;;;;;;;5.38;3.92;;;23.80;43.70;;;;;;5063180;28;20066;-74
2021/12/17 10:38:04;;;;;;;4.43;3.83;;;23.90;43.80;;;;;;5080687;28;20037;-73
2021/12/17 10:40:35;;;;;;;5.28;4.03;;;23.90;43.70;;;;;;5063715;28;20032;-74
2021/12/17 10:43:14;;;;;;;5.35;4.10;;;23.90;43.70;;;;;;5065268;28;20025;-73
2021/12/17 10:45:56;;;;;;;5.50;4.32;;;23.90;43.70;;;;;;5065989;28;20479;-73
2021/12/17 10:51:12;;;;;;;5.35;4.22;;;23.90;43.80;;;;;;5080421;28;20013;-74
2021/12/17 10:53:38;;;;;;;6.78;4.10;;;23.90;43.70;;;;;;5066987;28;20027;-74
2021/12/17 10:56:04;;;;;;;5.32;3.95;;;23.90;43.70;;;;;;5069329;28;20079;-75
2021/12/17 10:58:30;;;;;;;5.97;4.20;;;23.90;43.60;;;;;;5067858;28;20047;-75
2021/12/17 11:01:02;;;;;;;5.18;3.92;;;23.90;43.70;;;;;;5065179;28;20020;-72
2021/12/17 11:03:28;;;;;;;7.40;4.03;;;23.90;43.60;;;;;;5085289;28;20028;-72
2021/12/17 11:05:55;;;;;;;4.80;3.65;;;24.00;43.60;;;;;;5049978;28;20404;-72
2021/12/17 11:08:33;;;;;;;4.25;3.83;;;23.90;43.70;;;;;;5050125;28;20013;-73
2021/12/17 11:11:08;;;;;;;6.00;4.47;;;23.90;43.70;;;;;;5087309;28;20008;-73
2021/12/17 11:13:56;;;;;;;6.20;4.50;;;24.00;43.70;;;;;;5066172;28;20024;-73
2021/12/17 11:16:21;;;;;;;6.15;4.55;;;24.00;43.60;;;;;;5066394;28;20007;-73
2021/12/17 11:18:48;;;;;;;6.38;4.45;;;24.00;43.60;;;;;;5082947;28;20042;-73
2021/12/17 11:21:15;;;;;;;5.13;3.83;;;24.00;43.60;;;;;;5082632;28;20043;-73
2021/12/17 11:23:41;;;;;;;4.90;3.95;;;24.00;43.50;;;;;;5082554;28;20033;-73
2021/12/17 11:26:07;;;;;;;7.85;4.75;;;24.00;43.50;;;;;;5099623;28;20019;-73
2021/12/17 11:28:33;;;;;;;4.88;3.95;;;24.10;43.50;;;;;;5081983;28;20017;-73
2021/12/17 11:30:59;;;;;;;5.60;4.47;;;24.10;43.60;;;;;;5099584;28;20016;-74
2021/12/17 11:33:25;;;;;;;5.40;4.30;;;24.10;43.50;;;;;;5082389;28;20020;-73
2021/12/17 11:35:51;;;;;;;6.28;4.60;;;24.10;43.50;;;;;;5082739;28;20039;-73
2021/12/17 11:38:30;;;;;;;7.38;4.88;;;24.10;43.40;;;;;;5082266;28;20016;-73
2021/12/17 11:41:02;;;;;;;6.60;4.40;;;24.10;43.50;;;;;;5099122;28;20017;-72
2021/12/17 11:43:39;;;;;;;4.93;4.00;;;24.10;43.50;;;;;;5082414;28;20036;-73
2021/12/17 11:46:12;;;;;;;6.13;4.20;;;24.20;43.40;;;;;;5082510;28;20107;-73
2021/12/17 11:48:38;;;;;;;7.53;4.30;;;24.20;43.40;;;;;;5082359;28;20031;-73
2021/12/17 11:51:15;;;;;;;8.05;4.40;;;24.20;43.40;;;;;;5098977;28;20039;-74
2021/12/17 11:54:03;;;;;;;6.18;4.32;;;24.20;43.40;;;;;;5065631;28;20013;-74
2021/12/17 11:56:38;;;;;;;7.82;4.10;;;24.20;43.50;;;;;;5081980;28;20009;-73
2021/12/17 11:59:04;;;;;;;7.88;4.70;;;24.20;43.40;;;;;;5097945;28;20020;-73
2021/12/17 12:02:11;;;;;;;6.80;4.50;;;24.20;43.40;;;;;;5098513;28;20032;-73
2021/12/17 12:04:44;;;;;;;4.28;3.65;;;24.20;43.40;;;;;;5098965;28;20024;-73
2021/12/17 12:07:11;;;;;;;8.35;4.70;;;24.20;43.40;;;;;;5081904;28;20016;-74
2021/12/17 12:10:00;;;;;;;6.55;4.22;;;24.20;43.40;;;;;;5081755;28;20084;-74
2021/12/17 12:12:30;;;;;;;5.93;4.65;;;24.30;43.50;;;;;;5065194;28;20004;-74
2021/12/17 12:15:27;;;;;;;6.80;4.15;;;24.20;43.40;;;;;;5098689;28;20031;-74
2021/12/17 12:18:06;;;;;;;5.13;3.92;;;24.20;43.40;;;;;;5081703;28;20020;-74
2021/12/17 12:20:51;;;;;;;4.72;3.92;;;24.30;43.50;;;;;;5098781;28;20040;-74
2021/12/17 12:23:29;;;;;;;5.90;4.25;;;24.30;43.50;;;;;;5098045;28;20040;-74
2021/12/17 12:26:01;;;;;;;5.22;4.40;;;24.30;43.50;;;;;;5081592;28;20005;-74
2021/12/17 12:29:05;;;;;;;8.20;4.75;;;24.20;43.50;;;;;;5098566;28;20013;-74
2021/12/17 12:31:32;;;;;;;7.18;4.13;;;24.30;43.60;;;;;;5050623;28;20043;-74
2021/12/17 12:34:01;;;;;;;6.53;4.65;;;24.30;43.60;;;;;;5098525;28;20009;-74
2021/12/17 12:37:05;;;;;;;6.13;4.53;;;24.30;43.60;;;;;;5097839;28;20044;-74
2021/12/17 12:40:06;;;;;;;4.90;4.00;;;24.20;43.50;;;;;;5098400;28;20007;-75
2021/12/17 12:42:35;;;;;;;5.82;4.20;;;24.30;43.60;;;;;;5037891;28;20065;-73
2021/12/17 12:45:03;;;;;;;5.97;4.18;;;24.30;43.50;;;;;;5021885;28;20049;-73
2021/12/17 12:47:34;;;;;;;6.30;4.20;;;24.30;44.10;;;;;;5037893;28;20013;-74
2021/12/17 12:50:06;;;;;;;6.93;4.10;;;24.30;43.50;;;;;;5037812;28;20006;-74
2021/12/17 12:52:51;;;;;;;5.38;4.35;;;24.30;43.60;;;;;;5037590;28;20034;-74
2021/12/17 12:55:25;;;;;;;5.90;4.38;;;24.30;43.50;;;;;;5020902;28;20053;-75
2021/12/17 12:58:02;;;;;;;6.20;4.38;;;24.30;43.50;;;;;;5005866;28;20018;-74
2021/12/17 13:00:54;;;;;;;5.63;4.07;;;24.30;43.50;;;;;;5020785;28;20022;-73
2021/12/17 13:03:24;;;;;;;6.80;4.63;;;24.30;43.50;;;;;;4996668;28;20065;-74
2021/12/17 13:05:51;;;;;;;5.38;4.05;;;24.30;43.50;;;;;;5020600;28;20026;-74
2021/12/17 13:08:18;;;;;;;5.10;4.20;;;24.30;43.50;;;;;;5020727;28;20088;-74
2021/12/17 13:10:50;;;;;;;6.13;4.40;;;24.30;43.50;;;;;;5020830;28;20037;-75
2021/12/17 13:23:52;;;;;;;5.55;4.22;;;24.40;43.50;;;;;;5081502;28;20076;-74
2021/12/17 13:26:19;;;;;;;5.93;4.03;;;24.40;43.50;;;;;;5063492;28;20029;-74
2021/12/17 13:29:06;;;;;;;5.85;4.57;;;24.40;43.50;;;;;;5063139;28;20020;-74
2021/12/17 13:31:37;;;;;;;5.63;4.13;;;24.40;43.40;;;;;;5097522;28;20031;-75
2021/12/17 13:34:18;;;;;;;5.00;4.00;;;24.40;43.40;;;;;;5080731;28;20009;-75
2021/12/17 13:37:07;;;;;;;5.78;4.25;;;24.50;43.40;;;;;;5097769;28;20036;-75
2021/12/17 13:39:56;;;;;;;6.53;3.95;;;24.50;43.40;;;;;;5087803;28;20090;-74
2021/12/17 13:42:30;;;;;;;5.75;4.25;;;24.50;43.40;;;;;;5042799;28;20049;-75
2021/12/17 13:45:10;;;;;;;5.93;4.07;;;24.50;43.40;;;;;;5060432;28;20009;-75
2021/12/17 13:47:40;;;;;;;5.82;4.28;;;24.40;43.40;;;;;;5077386;28;20016;-74
2021/12/17 13:50:12;;;;;;;6.00;3.80;;;24.40;43.40;;;;;;5059437;28;20013;-74
2021/12/17 13:52:55;;;;;;;5.80;4.30;;;24.50;43.40;;;;;;5060366;28;20021;-74
2021/12/17 13:55:23;;;;;;;5.38;4.22;;;24.50;43.40;;;;;;5062669;28;20097;-74
2021/12/17 13:57:49;;;;;;;4.60;3.95;;;24.50;43.40;;;;;;5079395;28;20020;-75
2021/12/17 14:00:17;;;;;;;5.75;4.50;;;24.50;43.30;;;;;;5064174;28;20015;-74
2021/12/17 14:02:44;;;;;;;5.18;3.95;;;24.50;43.40;;;;;;5079243;28;20024;-74
2021/12/17 14:05:14;;;;;;;4.63;3.70;;;24.50;43.40;;;;;;5080487;28;20084;-74
2021/12/17 14:07:41;;;;;;;5.93;4.30;;;24.50;43.40;;;;;;5080627;28;20472;-74
2021/12/17 14:10:48;;;;;;;5.82;4.00;;;24.50;43.40;;;;;;5082681;28;20047;-72
2021/12/17 14:13:27;;;;;;;4.25;3.75;;;24.50;43.40;;;;;;5079857;28;20020;-73
2021/12/17 14:15:54;;;;;;;6.40;4.10;;;24.50;43.90;;;;;;5098951;28;20079;-74
2021/12/17 14:18:21;;;;;;;4.97;3.92;;;24.50;43.40;;;;;;5065306;28;19997;-74
2021/12/17 14:20:55;;;;;;;4.32;3.90;;;24.50;43.30;;;;;;5094291;28;20025;-74
2021/12/17 14:23:26;;;;;;;5.05;3.83;;;24.60;43.30;;;;;;5077845;28;20025;-74
2021/12/17 14:25:59;;;;;;;7.75;4.30;;;24.60;43.30;;;;;;5077726;28;20006;-73
2021/12/17 14:28:33;;;;;;;5.72;4.28;;;24.60;43.30;;;;;;5078671;28;20019;-74
2021/12/17 14:31:07;;;;;;;4.00;3.58;;;24.60;43.30;;;;;;5078410;28;20073;-74
2021/12/17 14:33:34;;;;;;;5.03;3.83;;;24.60;43.30;;;;;;5079753;28;20009;-74
2021/12/17 14:36:04;;;;;;;5.68;4.38;;;24.60;43.30;;;;;;5078529;28;20017;-72
2021/12/17 14:38:54;;;;;;;7.00;4.00;;;24.60;43.30;;;;;;5077969;28;20029;-73
2021/12/17 14:41:26;;;;;;;4.67;3.87;;;24.60;43.30;;;;;;5062905;28;20013;-73
2021/12/17 14:44:00;;;;;;;4.50;3.65;;;24.60;43.40;;;;;;5061793;28;20039;-73
2021/12/17 14:46:31;;;;;;;4.78;3.88;;;24.60;43.40;;;;;;5063259;28;20028;-74
2021/12/17 15:05:20;;;;;;;4.68;4.00;;;24.60;43.40;;;;;;5079047;28;20025;-74
2021/12/17 15:07:47;;;;;;;6.53;4.50;;;24.70;43.40;;;;;;5095653;28;20016;-75
2021/12/17 15:10:13;;;;;;;4.45;3.50;;;24.70;43.30;;;;;;5096272;28;20017;-73
2021/12/17 15:12:40;;;;;;;5.47;3.60;;;24.70;43.30;;;;;;5079709;28;20065;-75
2021/12/17 15:15:16;;;;;;;5.00;4.00;;;24.70;43.40;;;;;;5079727;28;20033;-74
2021/12/17 15:17:43;;;;;;;5.18;4.15;;;24.70;43.40;;;;;;5095949;28;20016;-73
2021/12/17 15:20:10;;;;;;;5.68;4.05;;;24.70;43.30;;;;;;5078423;28;20096;-74
2021/12/17 15:22:36;;;;;;;4.32;3.90;;;24.70;43.30;;;;;;5076989;28;20060;-74
2021/12/17 15:25:04;;;;;;;5.53;4.05;;;24.60;43.30;;;;;;5077114;28;20020;-74
2021/12/17 15:27:33;;;;;;;4.68;3.85;;;24.70;43.40;;;;;;5094294;28;20021;-75
2021/12/17 15:30:00;;;;;;;4.65;3.92;;;24.70;43.30;;;;;;5077471;28;20028;-74
2021/12/17 15:32:26;;;;;;;6.57;4.20;;;24.70;43.30;;;;;;5077990;28;20016;-75
2021/12/17 15:34:53;;;;;;;4.78;3.97;;;24.70;43.30;;;;;;5094071;28;20005;-74
2021/12/17 15:37:18;;;;;;;4.72;4.10;;;24.70;43.30;;;;;;5077498;28;20032;-75
2021/12/17 15:39:44;;;;;;;4.55;3.85;;;24.70;43.30;;;;;;5093227;28;20593;-75
2021/12/17 15:42:11;;;;;;;3.90;3.50;;;24.70;43.20;;;;;;5076559;28;20036;-75
2021/12/17 15:44:37;;;;;;;4.82;4.10;;;24.80;43.30;;;;;;5076929;28;20001;-74
2021/12/17 15:47:05;;;;;;;5.88;3.75;;;24.70;43.30;;;;;;5092362;28;20009;-74
2021/12/17 15:49:31;;;;;;;4.40;3.63;;;24.80;43.30;;;;;;5075719;28;20067;-74
2021/12/17 15:51:58;;;;;;;4.72;4.18;;;24.70;43.20;;;;;;5091529;28;20025;-74
2021/12/17 15:54:23;;;;;;;5.03;3.42;;;24.80;43.30;;;;;;5074415;28;20025;-74
2021/12/17 15:56:50;;;;;;;7.22;3.83;;;24.80;43.30;;;;;;5089929;28;20024;-74
2021/12/17 15:59:16;;;;;;;4.75;3.67;;;24.80;43.30;;;;;;5073776;28;20021;-74
2021/12/17 16:01:42;;;;;;;4.47;3.88;;;24.80;43.30;;;;;;5088954;28;20013;-74
2021/12/17 16:04:08;;;;;;;5.47;4.05;;;24.80;43.80;;;;;;5054971;28;20024;-73
2021/12/17 16:06:34;;;;;;;5.05;3.70;;;24.80;43.30;;;;;;5069945;28;20035;-74
2021/12/17 16:09:05;;;;;;;4.72;3.90;;;24.80;43.30;;;;;;5066840;28;20018;-73
2021/12/17 16:22:37;;;;;;;5.03;3.55;;;24.60;43.50;;;;;;5060783;28;20051;-73